Time;durP1;ratioP1;P1;durP2;ratioP2;P2;SDS_P1;SDS_P2;PMS_P1;PMS_P2;Temp;Humidity;BMP_temperature;BMP_pressure;BME280_temperature;BME280_humidity;BME280_pressure;Samples;Min_cycle;Max_cycle;Signal;HPM_P1;HPM_P2
2022/12/30 00:01:59;;;;;;;;;;;5.90;99.90;;;;;;4839511;29;20031;-75
2022/12/30 00:04:25;;;;;;;;;;;5.90;99.90;;;;;;4862564;29;19923;-75
2022/12/30 00:06:50;;;;;;;;;;;5.90;99.90;;;;;;4864189;29;19939;-75
2022/12/30 00:09:16;;;;;;;;;;;5.90;99.90;;;;;;4853642;29;19959;-74
2022/12/30 00:11:41;;;;;;;;;;;5.90;99.90;;;;;;4858513;29;20286;-75
2022/12/30 00:33:41;;;;;;;;;;;5.40;99.90;;;;;;4857383;29;20143;-75
2022/12/30 00:36:06;;;;;;;;;;;5.30;99.90;;;;;;4858562;29;19927;-75
2022/12/30 00:38:32;;;;;;;;;;;5.30;99.90;;;;;;4853613;29;19924;-75
2022/12/30 00:43:42;;;;;;;;;;;5.20;99.90;;;;;;4856619;29;19923;-75
2022/12/30 00:46:07;;;;;;;;;;;5.20;99.90;;;;;;4841416;29;20421;-75
2022/12/30 00:56:46;;;;;;;;;;;5.20;99.90;;;;;;4859200;29;19934;-75
2022/12/30 00:59:12;;;;;;;;;;;5.10;99.90;;;;;;4854069;29;20564;-74
2022/12/30 01:01:37;;;;;;;;;;;5.00;99.90;;;;;;4856740;29;19989;-75
2022/12/30 01:04:03;;;;;;;;;;;5.00;99.90;;;;;;4849930;29;19924;-75
2022/12/30 01:06:29;;;;;;;;;;;4.90;99.90;;;;;;4836836;29;20353;-75
2022/12/30 01:08:54;;;;;;;;;;;5.00;99.90;;;;;;4840448;29;20505;-75
2022/12/30 01:11:20;;;;;;;;;;;5.00;99.90;;;;;;4840716;29;20268;-75
2022/12/30 01:13:45;;;;;;;;;;;5.00;99.90;;;;;;4837379;29;20304;-75
2022/12/30 01:16:13;;;;;;;;;;;5.00;99.90;;;;;;4841326;29;19927;-75
2022/12/30 01:18:38;;;;;;;;;;;5.00;99.90;;;;;;4840041;29;20149;-75
2022/12/30 01:21:05;;;;;;;;;;;5.00;99.90;;;;;;4822990;29;19936;-75
2022/12/30 01:23:31;;;;;;;;;;;5.00;99.90;;;;;;4857425;29;19923;-75
2022/12/30 01:26:01;;;;;;;;;;;5.00;99.90;;;;;;4838296;29;20003;-75
2022/12/30 01:28:34;;;;;;;;;;;5.10;99.90;;;;;;4837225;29;19928;-75
2022/12/30 01:31:00;;;;;;;;;;;5.10;99.90;;;;;;4839525;29;19928;-75
2022/12/30 01:33:26;;;;;;;;;;;5.10;99.90;;;;;;4821313;29;19931;-75
2022/12/30 01:35:51;;;;;;;;;;;5.10;99.90;;;;;;4856286;29;19935;-74
2022/12/30 01:38:17;;;;;;;;;;;5.10;99.90;;;;;;4840109;29;19928;-74
2022/12/30 01:40:43;;;;;;;;;;;5.10;99.90;;;;;;4841651;29;19983;-74
2022/12/30 01:43:14;;;;;;;;;;;5.10;99.90;;;;;;4843645;29;19950;-74
2022/12/30 01:45:40;;;;;;;;;;;5.10;99.90;;;;;;4853725;29;20018;-74
2022/12/30 01:48:23;;;;;;;;;;;5.00;99.90;;;;;;4852688;29;20395;-74
2022/12/30 01:50:57;;;;;;;;;;;5.00;99.90;;;;;;4830190;29;19959;-74
2022/12/30 01:53:28;;;;;;;;;;;5.00;99.90;;;;;;4855711;29;19988;-74
2022/12/30 01:55:59;;;;;;;;;;;4.90;99.90;;;;;;4852558;29;19943;-74
2022/12/30 01:58:30;;;;;;;;;;;4.80;99.90;;;;;;4855213;29;19928;-74
2022/12/30 02:00:56;;;;;;;;;;;4.80;99.90;;;;;;4853928;29;19928;-74
2022/12/30 02:03:22;;;;;;;;;;;4.80;99.90;;;;;;4845319;29;19924;-74
2022/12/30 02:05:48;;;;;;;;;;;4.80;99.90;;;;;;4855427;29;20178;-73
2022/12/30 02:08:18;;;;;;;;;;;4.80;99.90;;;;;;4855176;29;19923;-72
2022/12/30 02:10:46;;;;;;;;;;;4.80;99.90;;;;;;4855503;29;19924;-72
2022/12/30 02:13:12;;;;;;;;;;;4.90;99.90;;;;;;4855106;29;20455;-72
2022/12/30 02:15:45;;;;;;;;;;;4.90;99.90;;;;;;4821697;29;19928;-71
2022/12/30 02:18:31;;;;;;;;;;;4.90;99.90;;;;;;4831822;29;19924;-71
2022/12/30 02:21:15;;;;;;;;;;;4.90;99.90;;;;;;4844645;29;19975;-71
2022/12/30 02:23:59;;;;;;;;;;;4.90;99.90;;;;;;4854357;29;19923;-72
2022/12/30 02:26:40;;;;;;;;;;;4.90;99.90;;;;;;4858895;29;19927;-72
2022/12/30 02:29:25;;;;;;;;;;;5.00;99.90;;;;;;4852305;29;19928;-72
2022/12/30 02:32:07;;;;;;;;;;;5.00;99.90;;;;;;4854772;29;20030;-72
2022/12/30 02:34:38;;;;;;;;;;;5.00;99.90;;;;;;4854811;29;20398;-72
2022/12/30 02:37:07;;;;;;;;;;;4.90;99.90;;;;;;4860995;29;19967;-72
2022/12/30 02:39:44;;;;;;;;;;;4.80;99.90;;;;;;4851971;29;19931;-72
2022/12/30 02:45:30;;;;;;;;;;;4.60;99.90;;;;;;4855209;29;19927;-72
2022/12/30 02:48:19;;;;;;;;;;;4.60;99.90;;;;;;4841606;29;19925;-74
2022/12/30 02:53:31;;;;;;;;;;;4.40;99.90;;;;;;4836405;29;20014;-75
2022/12/30 02:55:57;;;;;;;;;;;4.40;99.90;;;;;;4839431;29;19935;-74
2022/12/30 02:58:25;;;;;;;;;;;4.40;99.90;;;;;;4854028;29;19924;-74
2022/12/30 03:04:02;;;;;;;;;;;4.30;99.90;;;;;;4859756;29;19924;-74
2022/12/30 03:06:36;;;;;;;;;;;4.30;99.90;;;;;;4840213;29;19928;-74
2022/12/30 03:09:09;;;;;;;;;;;4.30;99.90;;;;;;4855110;29;20022;-74
2022/12/30 03:11:57;;;;;;;;;;;4.30;99.90;;;;;;4849346;29;20432;-75
2022/12/30 03:14:35;;;;;;;;;;;4.30;99.90;;;;;;4846325;29;19924;-74
2022/12/30 03:17:03;;;;;;;;;;;4.30;99.90;;;;;;4837981;29;20380;-74
2022/12/30 03:19:32;;;;;;;;;;;4.20;99.90;;;;;;4854622;29;19991;-74
2022/12/30 03:21:59;;;;;;;;;;;4.20;99.90;;;;;;4854773;29;19924;-74
2022/12/30 03:27:12;;;;;;;;;;;4.20;99.90;;;;;;4854829;29;19932;-74
2022/12/30 03:29:40;;;;;;;;;;;4.10;99.90;;;;;;4839675;29;19979;-74
2022/12/30 03:32:07;;;;;;;;;;;4.10;99.90;;;;;;4842087;29;19931;-74
2022/12/30 03:34:33;;;;;;;;;;;4.10;99.90;;;;;;4855600;29;19940;-74
2022/12/30 03:37:19;;;;;;;;;;;4.10;99.90;;;;;;4847327;29;19928;-74
2022/12/30 03:39:52;;;;;;;;;;;4.10;99.90;;;;;;4871067;29;19923;-74
2022/12/30 03:42:19;;;;;;;;;;;4.10;99.90;;;;;;4858946;29;19931;-74
2022/12/30 03:44:45;;;;;;;;;;;4.10;99.90;;;;;;4857585;29;19928;-74
2022/12/30 03:47:12;;;;;;;;;;;4.10;99.90;;;;;;4857398;29;19990;-74
2022/12/30 03:49:40;;;;;;;;;;;4.10;99.90;;;;;;4857905;29;19980;-74
2022/12/30 03:52:06;;;;;;;;;;;4.00;99.90;;;;;;4842357;29;19963;-74
2022/12/30 03:54:32;;;;;;;;;;;4.10;99.90;;;;;;4842426;29;19970;-74
2022/12/30 03:56:57;;;;;;;;;;;4.10;99.90;;;;;;4841571;29;19924;-74
2022/12/30 03:59:23;;;;;;;;;;;4.10;99.90;;;;;;4856680;29;19951;-74
2022/12/30 04:01:49;;;;;;;;;;;4.10;99.90;;;;;;4857269;29;19927;-74
2022/12/30 04:04:14;;;;;;;;;;;4.10;99.90;;;;;;4842416;29;19947;-75
2022/12/30 04:06:40;;;;;;;;;;;4.10;99.90;;;;;;4842089;29;19928;-75
2022/12/30 04:09:05;;;;;;;;;;;4.10;99.90;;;;;;4842194;29;20383;-74
2022/12/30 04:11:31;;;;;;;;;;;4.10;99.90;;;;;;4826718;29;19937;-74
2022/12/30 04:13:56;;;;;;;;;;;4.00;99.90;;;;;;4857888;29;19981;-74
2022/12/30 04:16:22;;;;;;;;;;;4.10;99.90;;;;;;4857224;29;19927;-74
2022/12/30 04:18:48;;;;;;;;;;;4.10;99.90;;;;;;4838343;29;20309;-74
2022/12/30 04:21:13;;;;;;;;;;;4.10;99.90;;;;;;4856091;29;19963;-74
2022/12/30 04:23:39;;;;;;;;;;;4.00;99.90;;;;;;4842268;29;20388;-74
2022/12/30 04:26:05;;;;;;;;;;;4.00;99.90;;;;;;4854023;29;20035;-75
2022/12/30 04:28:30;;;;;;;;;;;4.00;99.90;;;;;;4838613;29;19934;-75
2022/12/30 04:30:56;;;;;;;;;;;4.00;99.90;;;;;;4841612;29;20392;-75
2022/12/30 04:33:21;;;;;;;;;;;4.10;99.90;;;;;;4841721;29;19954;-75
2022/12/30 04:35:47;;;;;;;;;;;4.10;99.90;;;;;;4856947;29;19923;-74
2022/12/30 04:38:12;;;;;;;;;;;4.10;99.90;;;;;;4857209;29;19924;-74
2022/12/30 04:40:38;;;;;;;;;;;4.10;99.90;;;;;;4856707;29;19924;-75
2022/12/30 04:43:03;;;;;;;;;;;4.10;99.90;;;;;;4838709;29;20127;-74
2022/12/30 04:45:29;;;;;;;;;;;4.20;99.90;;;;;;4841206;29;19938;-75
2022/12/30 04:47:55;;;;;;;;;;;4.20;99.90;;;;;;4846461;29;20028;-74
2022/12/30 04:50:20;;;;;;;;;;;4.20;99.90;;;;;;4854545;29;19932;-75
2022/12/30 04:52:46;;;;;;;;;;;4.20;99.90;;;;;;4836260;29;20008;-74
2022/12/30 04:55:12;;;;;;;;;;;4.20;99.90;;;;;;4837195;29;20458;-74
2022/12/30 04:57:37;;;;;;;;;;;4.20;99.90;;;;;;4851021;29;19928;-74
2022/12/30 05:00:05;;;;;;;;;;;4.20;99.90;;;;;;4836984;29;19928;-74
2022/12/30 05:02:30;;;;;;;;;;;4.20;99.90;;;;;;4853237;29;20380;-74
2022/12/30 05:04:56;;;;;;;;;;;4.20;99.90;;;;;;4836537;29;19931;-74
2022/12/30 05:07:22;;;;;;;;;;;4.20;99.90;;;;;;4835540;29;19924;-74
2022/12/30 05:09:48;;;;;;;;;;;4.20;99.90;;;;;;4823358;29;19985;-74
2022/12/30 05:12:14;;;;;;;;;;;4.10;99.90;;;;;;4819278;29;19925;-74
2022/12/30 05:14:39;;;;;;;;;;;4.20;99.90;;;;;;4837102;29;19932;-75
2022/12/30 05:17:05;;;;;;;;;;;4.20;99.90;;;;;;4818930;29;19928;-74
2022/12/30 05:19:31;;;;;;;;;;;4.30;99.90;;;;;;4845965;29;20377;-74
2022/12/30 05:21:56;;;;;;;;;;;4.30;99.90;;;;;;4837024;29;19931;-74
2022/12/30 05:27:06;;;;;;;;;;;4.50;99.90;;;;;;4852840;29;20008;-75
2022/12/30 05:29:32;;;;;;;;;;;4.60;99.90;;;;;;4817073;29;20005;-75
2022/12/30 05:31:57;;;;;;;;;;;4.70;99.90;;;;;;4835998;29;19924;-74
2022/12/30 05:34:23;;;;;;;;;;;4.80;99.90;;;;;;4852247;29;19927;-74
2022/12/30 05:36:48;;;;;;;;;;;4.80;99.90;;;;;;4834669;29;19981;-75
2022/12/30 05:39:14;;;;;;;;;;;4.80;99.90;;;;;;4822184;29;20354;-75
2022/12/30 05:41:40;;;;;;;;;;;4.80;99.90;;;;;;4836855;29;19940;-74
2022/12/30 05:44:05;;;;;;;;;;;4.80;99.90;;;;;;4835827;29;20042;-75
2022/12/30 05:46:31;;;;;;;;;;;4.80;99.90;;;;;;4820003;29;19985;-75
2022/12/30 05:48:57;;;;;;;;;;;4.80;99.90;;;;;;4820252;29;20373;-75
2022/12/30 05:51:23;;;;;;;;;;;4.80;99.90;;;;;;4851911;29;19928;-74
2022/12/30 05:53:48;;;;;;;;;;;4.70;99.90;;;;;;4832704;29;20289;-75
2022/12/30 05:56:14;;;;;;;;;;;4.70;99.90;;;;;;4835343;29;19935;-74
2022/12/30 05:58:40;;;;;;;;;;;4.60;99.90;;;;;;4845922;29;19925;-74
2022/12/30 06:01:06;;;;;;;;;;;4.50;99.90;;;;;;4843034;29;19928;-75
2022/12/30 06:03:32;;;;;;;;;;;4.40;99.90;;;;;;4830930;29;19928;-74
2022/12/30 06:06:02;;;;;;;;;;;4.30;99.90;;;;;;4837320;29;20119;-74
2022/12/30 06:08:27;;;;;;;;;;;4.20;99.90;;;;;;4851977;29;20027;-74
2022/12/30 06:10:53;;;;;;;;;;;4.10;99.90;;;;;;4836833;29;19928;-74
2022/12/30 06:13:19;;;;;;;;;;;4.10;99.90;;;;;;4836820;29;20408;-75
2022/12/30 06:15:44;;;;;;;;;;;4.10;99.90;;;;;;4837358;29;20583;-74
2022/12/30 06:18:10;;;;;;;;;;;4.00;99.90;;;;;;4836568;29;19928;-74
2022/12/30 06:20:36;;;;;;;;;;;3.90;99.90;;;;;;4832949;29;20542;-74
2022/12/30 06:23:03;;;;;;;;;;;3.90;99.90;;;;;;4819222;29;20019;-75
2022/12/30 06:25:29;;;;;;;;;;;3.80;99.90;;;;;;4847725;29;20296;-74
2022/12/30 06:27:54;;;;;;;;;;;3.80;99.90;;;;;;4836690;29;20023;-74
2022/12/30 06:30:20;;;;;;;;;;;3.70;99.90;;;;;;4821939;29;20348;-74
2022/12/30 06:32:46;;;;;;;;;;;3.70;99.90;;;;;;4836426;29;19979;-74
2022/12/30 06:35:12;;;;;;;;;;;3.60;99.90;;;;;;4852396;29;20393;-75
2022/12/30 06:37:37;;;;;;;;;;;3.60;99.90;;;;;;4835449;29;19932;-74
2022/12/30 06:40:03;;;;;;;;;;;3.60;99.90;;;;;;4836615;29;19924;-74
2022/12/30 06:42:29;;;;;;;;;;;3.60;99.90;;;;;;4836450;29;19938;-74
2022/12/30 06:44:54;;;;;;;;;;;3.60;99.90;;;;;;4837201;29;19928;-74
2022/12/30 06:47:20;;;;;;;;;;;3.50;99.90;;;;;;4835420;29;19939;-74
2022/12/30 06:49:46;;;;;;;;;;;3.50;99.90;;;;;;4832592;29;19924;-74
2022/12/30 06:52:11;;;;;;;;;;;3.50;99.90;;;;;;4852276;29;20298;-74
2022/12/30 06:54:37;;;;;;;;;;;3.60;99.90;;;;;;4831648;29;19999;-75
2022/12/30 06:57:03;;;;;;;;;;;3.60;99.90;;;;;;4839769;29;20006;-75
2022/12/30 06:59:28;;;;;;;;;;;3.60;99.90;;;;;;4839964;29;19928;-75
2022/12/30 07:01:54;;;;;;;;;;;3.60;99.90;;;;;;4853337;29;19924;-75
2022/12/30 07:04:19;;;;;;;;;;;3.50;99.90;;;;;;4834973;29;19928;-75
2022/12/30 07:06:45;;;;;;;;;;;3.60;99.90;;;;;;4842590;29;19939;-75
2022/12/30 07:09:11;;;;;;;;;;;3.60;99.90;;;;;;4843691;29;20072;-75
2022/12/30 07:11:36;;;;;;;;;;;3.60;99.90;;;;;;4825954;29;19932;-75
2022/12/30 07:14:02;;;;;;;;;;;3.60;99.90;;;;;;4854285;29;19935;-75
2022/12/30 07:16:27;;;;;;;;;;;3.60;99.90;;;;;;4855589;29;20010;-74
2022/12/30 07:18:53;;;;;;;;;;;3.60;99.90;;;;;;4841532;29;19923;-75
2022/12/30 07:21:19;;;;;;;;;;;3.50;99.90;;;;;;4855204;29;20350;-75
2022/12/30 07:23:45;;;;;;;;;;;3.50;99.90;;;;;;4827327;29;19928;-75
2022/12/30 07:26:10;;;;;;;;;;;3.50;99.90;;;;;;4857018;29;19939;-74
2022/12/30 07:28:36;;;;;;;;;;;3.50;99.90;;;;;;4858164;29;19931;-75
2022/12/30 07:31:02;;;;;;;;;;;3.40;99.90;;;;;;4858112;29;20412;-75
2022/12/30 07:33:27;;;;;;;;;;;3.40;99.90;;;;;;4842466;29;19966;-75
2022/12/30 07:35:53;;;;;;;;;;;3.40;99.90;;;;;;4851658;29;19924;-74
2022/12/30 07:38:18;;;;;;;;;;;3.40;99.90;;;;;;4840855;29;20359;-75
2022/12/30 07:40:44;;;;;;;;;;;3.40;99.90;;;;;;4854718;29;21217;-74
2022/12/30 07:43:10;;;;;;;;;;;3.30;99.90;;;;;;4841821;29;19927;-74
2022/12/30 07:45:36;;;;;;;;;;;3.30;99.90;;;;;;4842215;29;19932;-74
2022/12/30 07:48:01;;;;;;;;;;;3.30;99.90;;;;;;4856454;29;20166;-74
2022/12/30 07:50:27;;;;;;;;;;;3.30;99.90;;;;;;4842031;29;19923;-74
2022/12/30 07:52:53;;;;;;;;;;;3.30;99.90;;;;;;4855990;29;19923;-75
2022/12/30 07:55:18;;;;;;;;;;;3.20;99.90;;;;;;4835614;29;19935;-74
2022/12/30 07:57:44;;;;;;;;;;;3.30;99.90;;;;;;4853192;29;20352;-75
2022/12/30 08:00:09;;;;;;;;;;;3.30;99.90;;;;;;4853208;29;20116;-75
2022/12/30 08:02:36;;;;;;;;;;;3.30;99.90;;;;;;4852788;29;19928;-75
2022/12/30 08:05:01;;;;;;;;;;;3.40;99.90;;;;;;4850546;29;19939;-75
2022/12/30 08:07:27;;;;;;;;;;;3.40;99.90;;;;;;4838573;29;19950;-75
2022/12/30 08:09:53;;;;;;;;;;;3.40;99.90;;;;;;4838802;29;19952;-75
2022/12/30 08:12:19;;;;;;;;;;;3.40;99.90;;;;;;4854469;29;20297;-74
2022/12/30 08:14:44;;;;;;;;;;;3.40;99.90;;;;;;4838161;29;19924;-75
2022/12/30 08:17:10;;;;;;;;;;;3.50;99.90;;;;;;4837617;29;20026;-74
2022/12/30 08:19:35;;;;;;;;;;;3.50;99.90;;;;;;4857968;29;19928;-74
2022/12/30 08:22:01;;;;;;;;;;;3.40;99.90;;;;;;4851304;29;20019;-75
2022/12/30 08:24:26;;;;;;;;;;;3.50;99.90;;;;;;4818751;29;20613;-75
2022/12/30 08:26:52;;;;;;;;;;;3.50;99.90;;;;;;4837472;29;19936;-74
2022/12/30 08:29:18;;;;;;;;;;;3.50;99.90;;;;;;4836268;29;19924;-75
2022/12/30 08:31:49;;;;;;;;;;;3.60;99.90;;;;;;4832400;29;20019;-74
2022/12/30 08:34:16;;;;;;;;;;;3.50;99.90;;;;;;4838893;29;19928;-74
2022/12/30 08:36:41;;;;;;;;;;;3.50;99.90;;;;;;4850385;29;19931;-74
2022/12/30 08:39:07;;;;;;;;;;;3.60;99.90;;;;;;4834389;29;19928;-74
2022/12/30 08:41:33;;;;;;;;;;;3.60;99.90;;;;;;4853880;29;19932;-74
2022/12/30 08:43:59;;;;;;;;;;;3.70;99.90;;;;;;4854918;29;20448;-74
2022/12/30 08:46:26;;;;;;;;;;;3.70;99.90;;;;;;4852753;29;19929;-74
2022/12/30 08:48:51;;;;;;;;;;;3.70;99.90;;;;;;4838061;29;20443;-74
2022/12/30 08:51:17;;;;;;;;;;;3.60;99.90;;;;;;4837817;29;19928;-74
2022/12/30 08:53:43;;;;;;;;;;;3.70;99.90;;;;;;4853705;29;20405;-74
2022/12/30 08:56:20;;;;;;;;;;;3.70;99.90;;;;;;4859053;29;19928;-73
2022/12/30 08:58:46;;;;;;;;;;;3.70;99.90;;;;;;4845613;29;19931;-75
2022/12/30 09:01:14;;;;;;;;;;;3.70;99.90;;;;;;4844798;29;20018;-76
2022/12/30 09:03:41;;;;;;;;;;;3.70;99.90;;;;;;4861095;29;19983;-74
2022/12/30 09:06:09;;;;;;;;;;;3.70;99.90;;;;;;4846350;29;19960;-74
2022/12/30 09:08:35;;;;;;;;;;;3.70;99.90;;;;;;4858578;29;20011;-75
2022/12/30 09:11:02;;;;;;;;;;;3.70;99.90;;;;;;4859931;29;19931;-74
2022/12/30 09:13:28;;;;;;;;;;;3.80;99.90;;;;;;4861324;29;19950;-76
2022/12/30 09:15:54;;;;;;;;;;;3.80;99.90;;;;;;4858874;29;19928;-75
2022/12/30 09:18:20;;;;;;;;;;;3.90;99.90;;;;;;4858758;29;19932;-76
2022/12/30 09:20:45;;;;;;;;;;;3.90;99.90;;;;;;4862215;29;19950;-75
2022/12/30 09:23:11;;;;;;;;;;;3.90;99.90;;;;;;4845545;29;20428;-75
2022/12/30 09:25:37;;;;;;;;;;;3.90;99.90;;;;;;4860427;29;19928;-75
2022/12/30 09:28:02;;;;;;;;;;;4.00;99.90;;;;;;4844349;29;19924;-75
2022/12/30 09:30:28;;;;;;;;;;;4.00;99.90;;;;;;4841193;29;20023;-75
2022/12/30 09:32:53;;;;;;;;;;;4.10;99.90;;;;;;4860424;29;19928;-74
2022/12/30 09:35:19;;;;;;;;;;;4.20;99.90;;;;;;4840077;29;19928;-74
2022/12/30 09:37:45;;;;;;;;;;;4.20;99.90;;;;;;4836175;29;19953;-75
2022/12/30 09:40:14;;;;;;;;;;;4.30;99.90;;;;;;4856673;29;19928;-75
2022/12/30 09:45:44;;;;;;;;;;;4.40;99.90;;;;;;4856018;29;20007;-75
2022/12/30 09:48:21;;;;;;;;;;;4.40;99.90;;;;;;4861625;29;19928;-74
2022/12/30 09:50:59;;;;;;;;;;;4.40;99.90;;;;;;4861509;29;19968;-76
2022/12/30 09:53:38;;;;;;;;;;;4.50;99.90;;;;;;4862552;29;19927;-75
2022/12/30 09:56:24;;;;;;;;;;;4.50;99.90;;;;;;4857378;29;19928;-76
2022/12/30 09:58:52;;;;;;;;;;;4.60;99.90;;;;;;4833653;29;19935;-76
2022/12/30 10:01:22;;;;;;;;;;;4.60;99.90;;;;;;4841184;29;19927;-76
2022/12/30 10:03:50;;;;;;;;;;;4.70;99.90;;;;;;4857900;29;19935;-75
2022/12/30 10:06:27;;;;;;;;;;;4.70;99.90;;;;;;4837361;29;20031;-74
2022/12/30 10:08:56;;;;;;;;;;;4.70;99.90;;;;;;4855509;29;19924;-75
2022/12/30 10:11:43;;;;;;;;;;;4.80;99.90;;;;;;4857885;29;19978;-76
2022/12/30 10:14:16;;;;;;;;;;;4.80;99.90;;;;;;4853713;29;19928;-75
2022/12/30 10:16:42;;;;;;;;;;;5.00;99.90;;;;;;4837210;29;19924;-75
2022/12/30 10:19:31;;;;;;;;;;;5.00;99.90;;;;;;4845530;29;19924;-75
2022/12/30 10:22:07;;;;;;;;;;;5.00;99.90;;;;;;4836441;29;19932;-75
2022/12/30 10:24:35;;;;;;;;;;;5.00;99.90;;;;;;4841240;29;19928;-76
2022/12/30 10:27:17;;;;;;;;;;;5.10;99.90;;;;;;4840649;29;20384;-76
2022/12/30 10:29:43;;;;;;;;;;;5.10;99.90;;;;;;4856658;29;20381;-75
2022/12/30 10:32:14;;;;;;;;;;;5.20;99.90;;;;;;4855692;29;20347;-76
2022/12/30 10:34:40;;;;;;;;;;;5.20;99.90;;;;;;4840042;29;20289;-75
2022/12/30 10:37:29;;;;;;;;;;;5.20;99.90;;;;;;4819286;29;19928;-75
2022/12/30 10:39:55;;;;;;;;;;;5.30;99.90;;;;;;4839680;29;19924;-75
2022/12/30 10:42:23;;;;;;;;;;;5.30;99.90;;;;;;4828278;29;19928;-75
2022/12/30 10:44:59;;;;;;;;;;;5.30;99.90;;;;;;4857618;29;19927;-74
2022/12/30 10:47:34;;;;;;;;;;;5.40;99.90;;;;;;4839197;29;19971;-75
2022/12/30 10:50:20;;;;;;;;;;;5.40;99.90;;;;;;4852972;29;20290;-75
2022/12/30 10:52:46;;;;;;;;;;;5.40;99.90;;;;;;4847286;29;19968;-75
2022/12/30 10:55:20;;;;;;;;;;;5.40;99.90;;;;;;4837237;29;20430;-73
2022/12/30 10:57:47;;;;;;;;;;;5.50;99.90;;;;;;4845803;29;19932;-73
2022/12/30 11:00:14;;;;;;;;;;;5.40;99.90;;;;;;4835222;29;19924;-73
2022/12/30 11:02:43;;;;;;;;;;;5.50;99.90;;;;;;4836622;29;19995;-73
2022/12/30 11:05:27;;;;;;;;;;;5.50;99.90;;;;;;4837132;29;19959;-73
2022/12/30 11:07:54;;;;;;;;;;;5.50;99.90;;;;;;4846701;29;20512;-73
2022/12/30 11:10:20;;;;;;;;;;;5.60;99.90;;;;;;4836990;29;19932;-72
2022/12/30 11:15:30;;;;;;;;;;;5.70;99.90;;;;;;4848904;29;19928;-72
2022/12/30 11:17:57;;;;;;;;;;;5.70;99.90;;;;;;4834080;29;19931;-72
2022/12/30 11:20:29;;;;;;;;;;;5.70;99.90;;;;;;4854868;29;20007;-72
2022/12/30 11:22:56;;;;;;;;;;;5.70;99.90;;;;;;4849690;29;19928;-72
2022/12/30 11:25:25;;;;;;;;;;;5.70;99.90;;;;;;4852931;29;19928;-73
2022/12/30 11:27:52;;;;;;;;;;;5.70;99.90;;;;;;4837126;29;19931;-73
2022/12/30 11:30:27;;;;;;;;;;;5.70;99.90;;;;;;4855352;29;19927;-73
2022/12/30 11:32:56;;;;;;;;;;;5.70;99.90;;;;;;4854633;29;20495;-72
2022/12/30 11:35:32;;;;;;;;;;;5.70;99.90;;;;;;4854530;29;19928;-73
2022/12/30 11:37:57;;;;;;;;;;;5.80;99.90;;;;;;4833820;29;19932;-73
2022/12/30 11:40:25;;;;;;;;;;;5.80;99.90;;;;;;4855121;29;19943;-72
2022/12/30 11:43:03;;;;;;;;;;;5.80;99.90;;;;;;4854514;29;19938;-72
2022/12/30 11:45:29;;;;;;;;;;;5.80;99.90;;;;;;4854632;29;19940;-73
2022/12/30 11:47:54;;;;;;;;;;;5.90;99.90;;;;;;4852814;29;20487;-72
2022/12/30 11:50:20;;;;;;;;;;;5.90;99.90;;;;;;4846750;29;20090;-72
2022/12/30 11:52:55;;;;;;;;;;;5.90;99.90;;;;;;4854294;29;20010;-72
2022/12/30 11:55:22;;;;;;;;;;;5.90;99.90;;;;;;4854836;29;20027;-72
2022/12/30 11:57:49;;;;;;;;;;;6.00;99.90;;;;;;4867939;29;19924;-73
2022/12/30 12:00:17;;;;;;;;;;;6.00;99.90;;;;;;4848876;29;19924;-72
2022/12/30 12:02:47;;;;;;;;;;;6.00;99.90;;;;;;4835375;29;19924;-72
2022/12/30 12:05:22;;;;;;;;;;;6.10;99.90;;;;;;4859501;29;19924;-75
2022/12/30 12:07:49;;;;;;;;;;;6.20;99.90;;;;;;4862495;29;20290;-75
2022/12/30 12:10:22;;;;;;;;;;;6.30;99.90;;;;;;4842082;29;19924;-75
2022/12/30 12:12:54;;;;;;;;;;;6.40;99.90;;;;;;4851994;29;19940;-74
2022/12/30 12:15:23;;;;;;;;;;;6.50;99.90;;;;;;4835252;29;19960;-75
2022/12/30 12:18:00;;;;;;;;;;;6.60;99.90;;;;;;4858228;29;20011;-75
2022/12/30 12:20:28;;;;;;;;;;;6.70;99.90;;;;;;4857839;29;19931;-75
2022/12/30 12:22:55;;;;;;;;;;;6.80;99.90;;;;;;4857293;29;20482;-74
2022/12/30 12:25:22;;;;;;;;;;;6.80;99.90;;;;;;4857463;29;20170;-74
2022/12/30 12:27:49;;;;;;;;;;;6.90;99.90;;;;;;4841589;29;20377;-74
2022/12/30 12:30:15;;;;;;;;;;;6.90;99.90;;;;;;4856287;29;19975;-75
2022/12/30 12:32:58;;;;;;;;;;;6.80;99.90;;;;;;4842573;29;20453;-74
2022/12/30 12:35:35;;;;;;;;;;;6.90;99.90;;;;;;4857898;29;20377;-75
2022/12/30 12:38:07;;;;;;;;;;;6.80;99.90;;;;;;4841365;29;20705;-75
2022/12/30 12:40:52;;;;;;;;;;;6.80;99.90;;;;;;4840152;29;19936;-75
2022/12/30 12:43:36;;;;;;;;;;;6.90;99.90;;;;;;4826561;29;19935;-74
2022/12/30 12:46:21;;;;;;;;;;;6.90;99.90;;;;;;4856914;29;20314;-74
2022/12/30 12:49:26;;;;;;;;;;;6.90;99.90;;;;;;4851689;29;19959;-74
2022/12/30 12:51:52;;;;;;;;;;;6.90;99.90;;;;;;4791981;29;19929;-74
2022/12/30 12:54:39;;;;;;;;;;;6.90;99.90;;;;;;4849444;29;20406;-75
2022/12/30 12:57:24;;;;;;;;;;;6.90;99.90;;;;;;4846547;29;19983;-75
2022/12/30 13:00:09;;;;;;;;;;;6.90;99.90;;;;;;4859917;29;20372;-75
2022/12/30 13:02:57;;;;;;;;;;;6.90;99.90;;;;;;4864609;29;19923;-75
2022/12/30 13:05:31;;;;;;;;;;;7.00;99.90;;;;;;4854802;29;19932;-74
2022/12/30 13:08:05;;;;;;;;;;;7.00;99.90;;;;;;4859713;29;19959;-74
2022/12/30 13:10:41;;;;;;;;;;;7.00;99.90;;;;;;4867069;29;19979;-75
2022/12/30 13:13:14;;;;;;;;;;;7.00;99.90;;;;;;4861743;29;20380;-74
2022/12/30 13:15:46;;;;;;;;;;;7.00;99.90;;;;;;4846503;29;19939;-75
2022/12/30 13:18:18;;;;;;;;;;;7.10;99.90;;;;;;4861262;29;19972;-74
2022/12/30 13:20:59;;;;;;;;;;;7.00;99.90;;;;;;4859587;29;19938;-75
2022/12/30 13:23:29;;;;;;;;;;;7.10;99.90;;;;;;4851764;29;19935;-75
2022/12/30 13:25:58;;;;;;;;;;;7.20;99.90;;;;;;4861953;29;20416;-74
2022/12/30 13:28:25;;;;;;;;;;;7.20;99.90;;;;;;4865038;29;20429;-75
2022/12/30 13:31:09;;;;;;;;;;;7.20;99.90;;;;;;4867046;29;19934;-73
2022/12/30 13:33:53;;;;;;;;;;;7.30;99.90;;;;;;4859949;29;19935;-75
2022/12/30 13:36:35;;;;;;;;;;;7.30;99.90;;;;;;4859980;29;19988;-75
2022/12/30 13:39:16;;;;;;;;;;;7.30;99.90;;;;;;4845572;29;19924;-74
2022/12/30 13:41:54;;;;;;;;;;;7.30;99.90;;;;;;4860400;29;20002;-74
2022/12/30 13:44:20;;;;;;;;;;;7.40;99.90;;;;;;4834657;29;19971;-74
2022/12/30 13:46:51;;;;;;;;;;;7.40;99.90;;;;;;4857679;29;19931;-74
2022/12/30 13:49:34;;;;;;;;;;;7.40;99.90;;;;;;4857294;29;20293;-73
2022/12/30 13:52:04;;;;;;;;;;;7.40;99.90;;;;;;4855951;29;19927;-74
2022/12/30 13:54:30;;;;;;;;;;;7.40;99.90;;;;;;4853946;29;20091;-74
2022/12/30 13:56:58;;;;;;;;;;;7.40;99.90;;;;;;4855737;29;19963;-74
2022/12/30 13:59:23;;;;;;;;;;;7.40;99.90;;;;;;4854954;29;19932;-74
2022/12/30 14:01:49;;;;;;;;;;;7.40;99.90;;;;;;4855783;29;20427;-74
2022/12/30 14:04:15;;;;;;;;;;;7.40;99.90;;;;;;4854622;29;20516;-74
2022/12/30 14:06:48;;;;;;;;;;;7.40;99.90;;;;;;4855487;29;19927;-73
2022/12/30 14:09:13;;;;;;;;;;;7.40;99.90;;;;;;4855278;29;20369;-74
2022/12/30 14:11:59;;;;;;;;;;;7.40;99.90;;;;;;4840543;29;19981;-74
2022/12/30 14:14:24;;;;;;;;;;;7.40;99.90;;;;;;4838029;29;19932;-74
2022/12/30 14:16:50;;;;;;;;;;;7.40;99.90;;;;;;4835539;29;19988;-74
2022/12/30 14:19:34;;;;;;;;;;;7.40;99.90;;;;;;4833714;29;19928;-75
2022/12/30 14:22:02;;;;;;;;;;;7.50;99.90;;;;;;4851707;29;20021;-74
2022/12/30 14:24:31;;;;;;;;;;;7.50;99.90;;;;;;4853547;29;19928;-74
2022/12/30 14:26:57;;;;;;;;;;;7.40;99.90;;;;;;4836477;29;20371;-74
2022/12/30 14:29:30;;;;;;;;;;;7.40;99.90;;;;;;4855886;29;19924;-74
2022/12/30 14:31:59;;;;;;;;;;;7.40;99.90;;;;;;4837938;29;19939;-74
2022/12/30 14:34:30;;;;;;;;;;;7.40;99.90;;;;;;4835609;29;20259;-74
2022/12/30 14:36:58;;;;;;;;;;;7.30;99.90;;;;;;4838024;29;19928;-74
2022/12/30 14:39:24;;;;;;;;;;;7.40;99.90;;;;;;4851903;29;19928;-74
2022/12/30 14:41:50;;;;;;;;;;;7.40;99.90;;;;;;4853774;29;19927;-73
2022/12/30 14:44:15;;;;;;;;;;;7.40;99.90;;;;;;4852592;29;19931;-73
2022/12/30 14:46:41;;;;;;;;;;;7.40;99.90;;;;;;4849849;29;19982;-73
2022/12/30 14:49:25;;;;;;;;;;;7.40;99.90;;;;;;4854672;29;20242;-73
2022/12/30 14:51:57;;;;;;;;;;;7.50;99.90;;;;;;4836647;29;20030;-73
2022/12/30 14:54:34;;;;;;;;;;;7.50;99.90;;;;;;4852674;29;19954;-74
2022/12/30 14:57:11;;;;;;;;;;;7.50;99.90;;;;;;4842712;29;19936;-74
2022/12/30 14:59:49;;;;;;;;;;;7.50;99.90;;;;;;4850898;29;19925;-75
2022/12/30 15:02:16;;;;;;;;;;;7.50;99.90;;;;;;4834703;29;19932;-74
2022/12/30 15:04:42;;;;;;;;;;;7.40;99.90;;;;;;4850186;29;20218;-74
2022/12/30 15:07:07;;;;;;;;;;;7.30;99.90;;;;;;4850994;29;19939;-74
2022/12/30 15:09:33;;;;;;;;;;;7.30;99.90;;;;;;4829700;29;19931;-74
2022/12/30 15:12:01;;;;;;;;;;;7.20;99.90;;;;;;4852810;29;19924;-74
2022/12/30 15:14:28;;;;;;;;;;;7.20;99.90;;;;;;4850255;29;19928;-75
2022/12/30 15:17:20;;;;;;;;;;;7.20;99.90;;;;;;4832161;29;19972;-75
2022/12/30 15:19:45;;;;;;;;;;;7.20;99.90;;;;;;4844237;29;19983;-74
2022/12/30 15:22:12;;;;;;;;;;;7.20;99.90;;;;;;4820984;29;20024;-74
2022/12/30 15:24:42;;;;;;;;;;;7.20;99.90;;;;;;4847992;29;20342;-75
2022/12/30 15:27:14;;;;;;;;;;;7.20;99.90;;;;;;4837994;29;20338;-74
2022/12/30 15:29:39;;;;;;;;;;;7.20;99.90;;;;;;4854506;29;20290;-74
2022/12/30 15:32:18;;;;;;;;;;;7.20;99.90;;;;;;4854078;29;19992;-74
2022/12/30 15:34:45;;;;;;;;;;;7.20;99.90;;;;;;4850934;29;20412;-74